createdAt,value
2019-02-12T00:00:24.218Z,64.4
2019-02-12T00:01:33.444Z,62.9
2019-02-12T00:02:42.620Z,64.9
2019-02-12T00:03:51.790Z,65.2
2019-02-12T00:05:00.979Z,64.3
2019-02-12T00:06:10.262Z,65.2
2019-02-12T00:07:19.358Z,64
2019-02-12T00:08:28.547Z,64.7
2019-02-12T00:09:37.745Z,63
2019-02-12T00:10:46.945Z,64.4
2019-02-12T00:11:56.153Z,63.5
2019-02-12T00:13:05.361Z,63.8
2019-02-12T00:14:14.531Z,63.4
2019-02-12T00:15:23.734Z,64.3
2019-02-12T00:16:33.369Z,65.8
2019-02-12T00:17:42.157Z,66.5
2019-02-12T00:18:51.309Z,64.9
2019-02-12T00:20:00.570Z,64.6
2019-02-12T00:21:09.704Z,66.1
2019-02-12T00:22:18.890Z,65.4
2019-02-12T00:23:28.081Z,65.2
2019-02-12T00:24:37.267Z,65.8
2019-02-12T00:25:46.471Z,66
2019-02-12T00:26:55.651Z,67.6
2019-02-12T00:28:04.858Z,67.1
2019-02-12T00:29:14.051Z,67.6
2019-02-12T00:30:23.231Z,70.4
2019-02-12T00:31:32.486Z,68.1
2019-02-12T00:32:41.612Z,68.2
2019-02-12T00:33:50.807Z,68.3
2019-02-12T00:35:00.267Z,70.3
2019-02-12T00:36:09.248Z,68.2
2019-02-12T00:37:18.418Z,70
2019-02-12T00:38:27.638Z,69.3
2019-02-12T00:39:36.774Z,69.7
2019-02-12T00:40:45.962Z,69.9
2019-02-12T00:41:55.221Z,70.3
2019-02-12T00:43:04.337Z,71
2019-02-12T00:44:13.535Z,71
2019-02-12T00:45:22.726Z,73.1
2019-02-12T00:46:32.211Z,70.8
2019-02-12T00:47:41.170Z,70.7
2019-02-12T00:48:50.303Z,71.9
2019-02-12T00:49:59.619Z,71.2
2019-02-12T00:51:08.736Z,72.1
2019-02-12T00:52:17.879Z,71.8
2019-02-12T00:53:27.087Z,72.8
2019-02-12T00:54:36.264Z,73.3
2019-02-12T00:55:45.611Z,73.3
2019-02-12T00:56:54.677Z,73.3
2019-02-12T00:58:03.850Z,74
2019-02-12T00:59:13.022Z,74.7
2019-02-12T01:00:22.213Z,74.2
2019-02-12T01:01:31.559Z,74.1
2019-02-12T01:02:40.693Z,74.9
2019-02-12T01:03:49.773Z,75.9
2019-02-12T01:04:58.965Z,75.4
2019-02-12T01:06:08.139Z,75.5
2019-02-12T01:07:17.355Z,76.2
2019-02-12T01:08:26.524Z,77.1
2019-02-12T01:09:35.700Z,77.1
2019-02-12T01:10:44.973Z,76.8
2019-02-12T01:11:54.075Z,76.8
2019-02-12T01:13:03.319Z,76.5
2019-02-12T01:14:12.486Z,76.9
2019-02-12T01:15:21.628Z,78.6
2019-02-12T01:16:30.846Z,77.8
2019-02-12T01:17:40.000Z,78.3
2019-02-12T01:18:49.204Z,78.1
2019-02-12T01:19:58.438Z,78.2
2019-02-12T01:21:07.620Z,77.9
2019-02-12T01:22:16.751Z,78.1
2019-02-12T01:23:25.928Z,78.2
2019-02-12T01:24:35.128Z,81.2
2019-02-12T01:25:44.286Z,79.2
2019-02-12T01:26:53.525Z,79.3
2019-02-12T01:28:02.774Z,78.7
2019-02-12T01:29:11.889Z,78.2
2019-02-12T01:30:21.079Z,78.3
2019-02-12T01:31:30.220Z,78.3
2019-02-12T01:32:39.624Z,77.4
2019-02-12T01:33:48.798Z,80
2019-02-12T01:34:57.758Z,78
2019-02-12T01:36:07.104Z,78.3
2019-02-12T01:37:16.215Z,77
2019-02-12T01:38:25.336Z,76.3
2019-02-12T01:39:34.862Z,78.3
2019-02-12T01:40:43.718Z,77
2019-02-12T01:41:52.909Z,75.7
2019-02-12T01:43:02.080Z,75.4
2019-02-12T01:44:11.270Z,75.9
2019-02-12T01:45:20.488Z,76
2019-02-12T01:46:29.723Z,74.5
2019-02-12T01:47:38.827Z,76.4
2019-02-12T01:48:48.067Z,74.4
2019-02-12T01:49:57.217Z,73.7
2019-02-12T01:51:06.453Z,73.8
2019-02-12T01:52:15.636Z,74
2019-02-12T01:53:24.786Z,74.4
2019-02-12T01:54:34.078Z,73.8
2019-02-12T01:55:43.172Z,74.1
2019-02-12T01:56:52.471Z,73.4
2019-02-12T01:58:01.578Z,74.3
2019-02-12T01:59:10.741Z,74.3
2019-02-12T02:00:19.943Z,73.5
2019-02-12T02:01:29.135Z,76.1
2019-02-12T02:02:38.401Z,75
2019-02-12T02:03:47.558Z,73.5
2019-02-12T02:04:56.707Z,73.5
2019-02-12T02:06:05.892Z,71.8
2019-02-12T02:07:15.106Z,71.3
2019-02-12T02:08:24.308Z,69.8
2019-02-12T02:09:33.500Z,68.5
2019-02-12T02:10:42.710Z,68.3
2019-02-12T02:11:52.003Z,68.3
2019-02-12T02:13:01.187Z,69
2019-02-12T02:14:10.242Z,68.9
2019-02-12T02:15:19.438Z,69.8
2019-02-12T02:16:28.678Z,71.8
2019-02-12T02:17:37.837Z,70
2019-02-12T02:18:47.068Z,69.8
2019-02-12T02:19:56.209Z,71.1
2019-02-12T02:21:05.404Z,70.5
2019-02-12T02:22:14.610Z,72
2019-02-12T02:23:23.823Z,70.4
2019-02-12T02:24:33.150Z,70.5
2019-02-12T02:25:42.261Z,70.9
2019-02-12T02:26:51.393Z,70.9
2019-02-12T02:28:00.562Z,70.8
2019-02-12T02:29:09.761Z,71
2019-02-12T02:30:19.100Z,70.6
2019-02-12T02:31:28.162Z,70.8
2019-02-12T02:32:37.370Z,71.3
2019-02-12T02:33:46.542Z,72
2019-02-12T02:34:55.765Z,73.3
2019-02-12T02:36:05.043Z,72.4
2019-02-12T02:37:14.150Z,71.2
2019-02-12T02:38:23.342Z,73.4
2019-02-12T02:39:32.645Z,72.4
2019-02-12T02:40:41.748Z,71.8
2019-02-12T02:41:50.929Z,72.7
2019-02-12T02:43:00.133Z,73.4
2019-02-12T02:44:09.348Z,73.8
2019-02-12T02:45:18.668Z,73.5
2019-02-12T02:46:27.755Z,73.5
2019-02-12T02:47:36.918Z,74.7
2019-02-12T02:48:46.155Z,74.5
2019-02-12T02:49:55.289Z,74.3
2019-02-12T02:51:04.489Z,75.5
2019-02-12T02:52:13.726Z,74.9
2019-02-12T02:53:22.877Z,75
2019-02-12T02:54:32.077Z,78.1
2019-02-12T02:55:41.294Z,78.1
2019-02-12T02:56:50.508Z,76.9
2019-02-12T02:57:59.668Z,77.7
2019-02-12T02:59:08.937Z,77.8
2019-02-12T03:00:18.108Z,77.3
2019-02-12T03:01:27.252Z,77.8
2019-02-12T03:02:36.457Z,77.8
2019-02-12T03:03:45.660Z,77.9
2019-02-12T03:04:54.855Z,80
2019-02-12T03:06:04.044Z,78.6
2019-02-12T03:07:13.301Z,78
2019-02-12T03:08:22.442Z,77.2
2019-02-12T03:09:31.662Z,78.2
2019-02-12T03:10:40.856Z,78.6
2019-02-12T03:11:50.029Z,78.5
2019-02-12T03:12:59.232Z,78.5
2019-02-12T03:14:08.423Z,80.3
2019-02-12T03:15:17.611Z,81.3
2019-02-12T03:16:26.804Z,82.1
2019-02-12T03:17:36.007Z,81.7
2019-02-12T03:18:45.191Z,82.1
2019-02-12T03:19:54.408Z,82.4
2019-02-12T03:21:03.681Z,82.7
2019-02-12T03:22:12.785Z,83.2
2019-02-12T03:23:23.117Z,84.9
2019-02-12T03:24:32.332Z,83.5
2019-02-12T03:25:41.509Z,83.7
2019-02-12T03:26:50.686Z,84.3
2019-02-12T03:27:59.896Z,84.4
2019-02-12T03:29:09.075Z,84.7
2019-02-12T03:30:18.250Z,84.4
2019-02-12T03:31:27.513Z,84.8
2019-02-12T03:32:36.668Z,84.5
2019-02-12T03:33:45.863Z,84.3
2019-02-12T03:34:55.014Z,85
2019-02-12T03:36:04.173Z,86.5
2019-02-12T03:37:13.370Z,85
2019-02-12T03:38:22.552Z,85.4
2019-02-12T03:39:31.735Z,84.7
2019-02-12T03:40:40.971Z,86.4
2019-02-12T03:41:50.144Z,84.1
2019-02-12T03:42:59.285Z,83.6
2019-02-12T03:44:08.457Z,83.5
2019-02-12T03:45:17.677Z,83.6
2019-02-12T03:46:26.819Z,83
2019-02-12T03:47:36.074Z,82.5
2019-02-12T03:48:45.241Z,83
2019-02-12T03:49:54.374Z,84.5
2019-02-12T03:51:03.551Z,85
2019-02-12T03:52:13.383Z,84.6
2019-02-12T03:53:21.922Z,84
2019-02-12T03:54:31.102Z,83
2019-02-12T03:55:40.340Z,83.1
2019-02-12T03:56:49.450Z,84.1
2019-02-12T03:57:58.668Z,84.4
2019-02-12T03:59:07.817Z,83.8
2019-02-12T04:00:16.987Z,83.4
2019-02-12T04:01:26.161Z,84.4
2019-02-12T04:02:35.349Z,84.1
2019-02-12T04:03:44.532Z,85.7
2019-02-12T04:04:53.692Z,85
2019-02-12T04:06:02.916Z,83.7
2019-02-12T04:07:12.083Z,84.8
2019-02-12T04:08:21.232Z,84.2
2019-02-12T04:09:30.416Z,83.5
2019-02-12T04:10:39.590Z,83.2
2019-02-12T04:11:48.767Z,83.1
2019-02-12T04:12:57.989Z,83.7
2019-02-12T04:14:07.131Z,83.7
2019-02-12T04:15:16.388Z,84.2
2019-02-12T04:16:25.620Z,83.2
2019-02-12T04:17:34.652Z,83.2
2019-02-12T04:18:43.904Z,83.2
2019-02-12T04:19:53.020Z,83.2
2019-02-12T04:21:02.188Z,82.5
2019-02-12T04:22:11.365Z,82
2019-02-12T04:23:20.538Z,82.2
2019-02-12T04:24:29.730Z,82.5
2019-02-12T04:25:38.898Z,81.5
2019-02-12T04:26:48.075Z,81.3
2019-02-12T04:27:57.267Z,81.6
2019-02-12T04:29:06.456Z,82.1
2019-02-12T04:30:15.642Z,81.3
2019-02-12T04:31:24.842Z,81.2
2019-02-12T04:32:33.975Z,82.2
2019-02-12T04:33:43.160Z,83.2
2019-02-12T04:34:52.361Z,81.1
2019-02-12T04:36:01.552Z,81.7
2019-02-12T04:37:10.739Z,81.6
2019-02-12T04:38:19.887Z,81.9
2019-02-12T04:39:29.066Z,82
2019-02-12T04:40:38.266Z,82.4
2019-02-12T04:41:47.444Z,83.2
2019-02-12T04:42:56.673Z,82.5
2019-02-12T04:44:05.787Z,81.7
2019-02-12T04:45:14.970Z,82.4
2019-02-12T04:46:24.153Z,82.7
2019-02-12T04:47:33.348Z,81.6
2019-02-12T04:48:42.515Z,81.6
2019-02-12T04:49:51.705Z,81.9
2019-02-12T04:51:00.888Z,82
2019-02-12T04:52:10.060Z,81.6
2019-02-12T04:53:19.263Z,81.7
2019-02-12T04:54:28.467Z,81.4
2019-02-12T04:55:37.603Z,81.3
2019-02-12T04:56:46.800Z,81.8
2019-02-12T04:57:55.981Z,83.2
2019-02-12T04:59:05.186Z,83.2
2019-02-12T05:00:14.418Z,83.1
2019-02-12T05:01:23.525Z,82.4
2019-02-12T05:02:32.965Z,82.3
2019-02-12T05:03:41.882Z,82
2019-02-12T05:04:51.107Z,82.3
2019-02-12T05:06:00.253Z,81.8
2019-02-12T05:07:09.445Z,83.2
2019-02-12T05:08:18.742Z,83.1
2019-02-12T05:09:27.795Z,83.2
2019-02-12T05:10:36.996Z,83.2
2019-02-12T05:11:46.349Z,84.1
2019-02-12T05:12:55.351Z,83.5
2019-02-12T05:14:04.561Z,83.2
2019-02-12T05:15:13.723Z,83.2
2019-02-12T05:16:22.914Z,84.6
2019-02-12T05:17:32.115Z,83.2
2019-02-12T05:18:41.346Z,84.6
2019-02-12T05:19:50.452Z,84.3
2019-02-12T05:20:59.630Z,83.3
2019-02-12T05:22:08.814Z,83.3
2019-02-12T05:23:18.046Z,83.2
2019-02-12T05:24:27.204Z,83.6
2019-02-12T05:25:36.373Z,83.5
2019-02-12T05:26:45.554Z,83.4
2019-02-12T05:27:54.732Z,83.3
2019-02-12T05:29:03.927Z,84.6
2019-02-12T05:30:13.117Z,83.4
2019-02-12T05:31:22.336Z,83.4
2019-02-12T05:32:31.470Z,83.4
2019-02-12T05:33:40.662Z,83.4
2019-02-12T05:34:49.949Z,83.4
2019-02-12T05:35:59.044Z,84.6
2019-02-12T05:37:08.240Z,84.6
2019-02-12T05:38:17.437Z,84
2019-02-12T05:39:26.623Z,84.6
2019-02-12T05:40:35.775Z,86.2
2019-02-12T05:41:44.966Z,85.6
2019-02-12T05:42:54.195Z,86.5
2019-02-12T05:44:03.368Z,86.6
2019-02-12T05:45:12.779Z,87
2019-02-12T05:46:21.739Z,87.7
2019-02-12T05:47:30.907Z,85.9
2019-02-12T05:48:40.179Z,88.2
2019-02-12T05:49:49.277Z,87
2019-02-12T05:50:58.472Z,88.2
2019-02-12T05:52:07.683Z,88.2
2019-02-12T05:53:16.847Z,88.3
2019-02-12T05:54:26.020Z,88.4
2019-02-12T05:55:35.203Z,88.2
2019-02-12T05:56:44.385Z,89.6
2019-02-12T05:57:53.584Z,88.3
2019-02-12T05:59:02.758Z,89.3
2019-02-12T06:00:11.955Z,90
2019-02-12T06:01:21.146Z,88.4
2019-02-12T06:02:30.319Z,89.2
2019-02-12T06:03:39.500Z,89.5
2019-02-12T06:04:48.761Z,89.4
2019-02-12T06:05:57.873Z,89.6
2019-02-12T06:07:07.113Z,89.4
2019-02-12T06:08:16.314Z,90.2
2019-02-12T06:09:25.552Z,90
2019-02-12T06:10:34.590Z,90.2
2019-02-12T06:11:43.780Z,90
2019-02-12T06:12:53.029Z,89.6
2019-02-12T06:14:02.138Z,90.5
2019-02-12T06:15:11.407Z,90.6
2019-02-12T06:16:20.620Z,90.4
2019-02-12T06:17:29.676Z,90.4
2019-02-12T06:18:38.874Z,90.2
2019-02-12T06:19:48.074Z,90.5
2019-02-12T06:20:57.239Z,91
2019-02-12T06:22:06.420Z,91.3
2019-02-12T06:23:15.629Z,90.8
2019-02-12T06:24:24.802Z,90.8
2019-02-12T06:25:33.967Z,90.8
2019-02-12T06:26:43.138Z,90.6
2019-02-12T06:27:52.340Z,91
2019-02-12T06:29:01.507Z,92.6
2019-02-12T06:30:10.679Z,91.2
2019-02-12T06:31:19.892Z,90.8
2019-02-12T06:32:29.064Z,90.4
2019-02-12T06:33:38.238Z,90
2019-02-12T06:34:47.453Z,90
2019-02-12T06:35:56.576Z,89.8
2019-02-12T06:37:05.768Z,88.2
2019-02-12T06:38:14.943Z,88.1
2019-02-12T06:39:24.142Z,87.3
2019-02-12T06:40:33.302Z,88.5
2019-02-12T06:41:42.538Z,87.1
2019-02-12T06:42:51.667Z,86.3
2019-02-12T06:44:00.833Z,86.6
2019-02-12T06:45:10.033Z,85.7
2019-02-12T06:46:19.420Z,87.6
2019-02-12T06:47:28.427Z,84.7
2019-02-12T06:48:37.583Z,84.6
2019-02-12T06:49:46.755Z,84.6
2019-02-12T06:50:55.974Z,83.8
2019-02-12T06:52:05.119Z,83.3
2019-02-12T06:53:14.291Z,84.4
2019-02-12T06:54:23.496Z,83.3
2019-02-12T06:55:34.399Z,84.1
2019-02-12T06:56:43.561Z,83.3
2019-02-12T06:57:52.743Z,84.2
2019-02-12T06:59:01.937Z,83.4
2019-02-12T07:00:11.126Z,84
2019-02-12T07:01:20.353Z,83.4
2019-02-12T07:02:29.502Z,84.5
2019-02-12T07:03:38.678Z,83.5
2019-02-12T07:04:47.898Z,83.5
2019-02-12T07:05:57.057Z,83.4
2019-02-12T07:07:06.237Z,83.5
2019-02-12T07:08:15.423Z,83.6
2019-02-12T07:09:24.599Z,84.6
2019-02-12T07:10:33.801Z,83.6
2019-02-12T07:11:42.989Z,82.9
2019-02-12T07:12:52.285Z,84.2
2019-02-12T07:14:01.462Z,83.6
2019-02-12T07:15:10.586Z,83.5
2019-02-12T07:16:19.761Z,83.5
2019-02-12T07:17:28.937Z,83.5
2019-02-12T07:18:38.138Z,83.7
2019-02-12T07:19:47.418Z,83.6
2019-02-12T07:20:56.527Z,83.6
2019-02-12T07:22:05.712Z,84
2019-02-12T07:23:21.668Z,83.5
2019-02-12T07:24:24.128Z,83.6
2019-02-12T07:25:33.300Z,84.2
2019-02-12T07:26:42.504Z,82.4
2019-02-12T07:27:51.683Z,82.6
2019-02-12T07:29:00.887Z,83.8
2019-02-12T07:30:10.085Z,83
2019-02-12T07:31:19.297Z,83.4
2019-02-12T07:32:28.488Z,82.3
2019-02-12T07:33:37.660Z,82.8
2019-02-12T07:34:46.876Z,83.4
2019-02-12T07:35:56.070Z,82.3
2019-02-12T07:37:05.275Z,82.3
2019-02-12T07:38:14.446Z,82.5
2019-02-12T07:39:23.688Z,82.3
2019-02-12T07:40:32.997Z,83.5
2019-02-12T07:41:42.068Z,83.1
2019-02-12T07:42:51.226Z,83
2019-02-12T07:44:00.449Z,82.9
2019-02-12T07:45:09.626Z,82.4
2019-02-12T07:46:18.861Z,83.5
2019-02-12T07:47:28.025Z,82.6
2019-02-12T07:48:37.217Z,81.9
2019-02-12T07:49:46.473Z,81.8
2019-02-12T07:50:55.622Z,81.2
2019-02-12T07:52:04.800Z,80.9
2019-02-12T07:53:14.000Z,81.5
2019-02-12T07:54:23.183Z,80.9
2019-02-12T07:55:32.427Z,82.5
2019-02-12T07:56:41.606Z,82
2019-02-12T07:57:50.781Z,81.4
2019-02-12T07:58:59.973Z,80.4
2019-02-12T08:00:09.153Z,80.3
2019-02-12T08:01:18.408Z,79.6
2019-02-12T08:02:27.589Z,78.5
2019-02-12T08:03:36.751Z,79.8
2019-02-12T08:04:45.983Z,81.1
2019-02-12T08:05:55.142Z,79.8
2019-02-12T08:07:04.359Z,79.4
2019-02-12T08:08:13.533Z,78.6
2019-02-12T08:09:22.735Z,78.6
2019-02-12T08:10:31.975Z,79.6
2019-02-12T08:11:41.165Z,78.6
2019-02-12T08:12:50.423Z,78.6
2019-02-12T08:13:59.530Z,78.6
2019-02-12T08:15:08.731Z,77.8
2019-02-12T08:16:17.926Z,77.5
2019-02-12T08:17:27.165Z,77.6
2019-02-12T08:18:36.364Z,78.6
2019-02-12T08:19:45.547Z,77.8
2019-02-12T08:20:54.727Z,77.1
2019-02-12T08:22:03.978Z,77.4
2019-02-12T08:23:13.130Z,77.5
2019-02-12T08:24:22.339Z,78.7
2019-02-12T08:25:31.767Z,75.7
2019-02-12T08:26:40.732Z,76.5
2019-02-12T08:27:49.957Z,76.8
2019-02-12T08:28:59.161Z,75.6
2019-02-12T08:30:08.350Z,75.4
2019-02-12T08:31:17.549Z,75.2
2019-02-12T08:32:26.766Z,74.9
2019-02-12T08:33:36.013Z,73.7
2019-02-12T08:34:45.170Z,73.8
2019-02-12T08:35:57.687Z,74
2019-02-12T08:37:03.588Z,73.8
2019-02-12T08:38:12.819Z,73.2
2019-02-12T08:39:22.009Z,72
2019-02-12T08:40:31.461Z,72.2
2019-02-12T08:41:40.422Z,72.1
2019-02-12T08:42:49.670Z,72.7
2019-02-12T08:43:58.875Z,72
2019-02-12T08:45:08.051Z,70.6
2019-02-12T08:46:17.399Z,69.1
2019-02-12T08:47:26.503Z,67
2019-02-12T08:48:35.700Z,65.2
2019-02-12T08:49:44.962Z,62.3
2019-02-12T08:50:54.146Z,64.2
2019-02-12T08:52:03.419Z,60.7
2019-02-12T08:53:12.615Z,63
2019-02-12T08:54:21.824Z,64.3
2019-02-12T08:55:31.066Z,61.1
2019-02-12T08:56:40.310Z,58.9
2019-02-12T08:57:49.540Z,60.7
2019-02-12T08:58:58.766Z,61.9
2019-02-12T09:00:08.002Z,63.2
2019-02-12T09:01:17.258Z,58
2019-02-12T09:02:26.487Z,54.6
2019-02-12T09:03:35.738Z,55.3
2019-02-12T09:04:44.945Z,54.8
2019-02-12T09:05:54.266Z,55
2019-02-12T09:07:03.472Z,55.5
2019-02-12T09:08:12.721Z,55.1
2019-02-12T09:09:21.946Z,55.4
2019-02-12T09:10:31.269Z,56.8
2019-02-12T09:11:40.446Z,56.1
2019-02-12T09:12:49.678Z,53.5
2019-02-12T09:13:59.037Z,52.4
2019-02-12T09:15:08.219Z,51.8
2019-02-12T09:16:17.510Z,49.6
2019-02-12T09:17:26.721Z,50.5
2019-02-12T09:18:35.965Z,50.1
2019-02-12T09:19:45.250Z,48
2019-02-12T09:20:54.522Z,46.2
2019-02-12T09:22:04.287Z,45
2019-02-12T09:23:13.009Z,47.6
2019-02-12T09:24:22.269Z,46.5
2019-02-12T09:25:31.775Z,48.8
2019-02-12T09:26:40.813Z,47
2019-02-12T09:27:50.070Z,43.6
2019-02-12T09:28:59.340Z,40.8
2019-02-12T09:30:08.683Z,40.3
2019-02-12T09:31:18.183Z,40
2019-02-12T09:32:27.167Z,38.9
2019-02-12T09:33:36.657Z,40.8
2019-02-12T09:34:45.769Z,40.7
2019-02-12T09:35:55.032Z,41.1
2019-02-12T09:37:04.317Z,44.5
2019-02-12T09:38:13.567Z,38.7
2019-02-12T09:39:22.887Z,39.6
2019-02-12T09:40:32.152Z,36.1
2019-02-12T09:41:41.559Z,37.1
2019-02-12T09:42:50.714Z,37.2
2019-02-12T09:44:00.042Z,37.5
2019-02-12T09:45:09.399Z,38.2
2019-02-12T09:46:18.701Z,39.8
2019-02-12T09:47:27.946Z,37.1
2019-02-12T09:48:37.210Z,35.8
2019-02-12T09:49:46.584Z,35.7
2019-02-12T09:50:55.789Z,34.1
2019-02-12T09:52:05.064Z,34.6
2019-02-12T09:53:14.368Z,33.9
2019-02-12T09:54:23.705Z,35.2
2019-02-12T09:55:32.946Z,34.3
2019-02-12T09:56:42.249Z,32.5
2019-02-12T09:57:51.552Z,33.2
2019-02-12T09:59:00.852Z,34.7
2019-02-12T10:00:10.135Z,35.2
2019-02-12T10:01:19.441Z,35.4
2019-02-12T10:02:28.729Z,30.7
2019-02-12T10:03:38.037Z,29.2
2019-02-12T10:04:47.361Z,27.5
2019-02-12T10:05:56.787Z,29.7
2019-02-12T10:07:05.963Z,28.1
2019-02-12T10:08:15.231Z,26.6
2019-02-12T10:09:24.608Z,26
2019-02-12T10:10:33.852Z,25.6
2019-02-12T10:11:43.171Z,26.8
2019-02-12T10:12:52.490Z,26.2
2019-02-12T10:14:01.810Z,23.5
2019-02-12T10:15:11.121Z,24.2
2019-02-12T10:16:20.442Z,23.8
2019-02-12T10:17:29.774Z,24.8
2019-02-12T10:18:39.089Z,25.6
2019-02-12T10:19:48.408Z,26.5
2019-02-12T10:20:57.727Z,25.6
2019-02-12T10:22:07.023Z,26.9
2019-02-12T10:23:16.443Z,29.8
2019-02-12T10:24:25.721Z,29.6
2019-02-12T10:25:35.029Z,29.1
2019-02-12T10:26:44.445Z,28
2019-02-12T10:27:53.742Z,28.1
2019-02-12T10:29:02.967Z,27.7
2019-02-12T10:30:12.304Z,28.6
2019-02-12T10:31:21.625Z,28.7
2019-02-12T10:32:30.940Z,28.6
2019-02-12T10:33:40.277Z,27.4
2019-02-12T10:34:49.627Z,28.4
2019-02-12T10:35:58.932Z,26.9
2019-02-12T10:37:08.309Z,26.8
2019-02-12T10:38:17.660Z,25.9
2019-02-12T10:39:26.909Z,26.7
2019-02-12T10:40:36.428Z,27.4
2019-02-12T10:41:47.137Z,27.2
2019-02-12T10:42:56.458Z,29.4
2019-02-12T10:44:05.987Z,29.1
2019-02-12T10:45:15.116Z,27.1
2019-02-12T10:46:24.494Z,27.1
2019-02-12T10:47:33.790Z,27.4
2019-02-12T10:48:43.097Z,27.2
2019-02-12T10:49:52.443Z,25.5
2019-02-12T10:51:01.804Z,22.7
2019-02-12T10:52:11.054Z,18.5
2019-02-12T10:53:20.384Z,19.5
2019-02-12T10:54:29.709Z,20.2
2019-02-12T10:55:39.048Z,19.1
2019-02-12T10:56:48.411Z,18.9
2019-02-12T10:57:57.710Z,21.4
2019-02-12T10:59:07.091Z,23.3
2019-02-12T11:00:16.432Z,22.7
2019-02-12T11:01:25.757Z,24.2
2019-02-12T11:02:35.060Z,26.9
2019-02-12T11:03:44.586Z,25.3
2019-02-12T11:04:53.764Z,25.8
2019-02-12T11:06:03.079Z,25.4
2019-02-12T11:07:12.488Z,26.4
2019-02-12T11:08:21.756Z,23
2019-02-12T11:09:31.060Z,21.8
2019-02-12T11:10:40.450Z,18.4
2019-02-12T11:11:49.776Z,17.7
2019-02-12T11:12:59.064Z,18.6
2019-02-12T11:14:08.607Z,19.2
2019-02-12T11:15:17.730Z,19.5
2019-02-12T11:16:27.075Z,20.2
2019-02-12T11:17:36.427Z,21.3
2019-02-12T11:18:45.771Z,20.7
2019-02-12T11:19:55.076Z,22
2019-02-12T11:21:12.414Z,22.3
2019-02-12T11:22:13.715Z,24.3
2019-02-12T11:23:23.085Z,24.7
2019-02-12T11:24:35.884Z,24.2
2019-02-12T11:25:41.765Z,24.6
2019-02-12T11:26:51.009Z,25.5
2019-02-12T11:28:00.302Z,24.1
2019-02-12T11:29:09.634Z,22.9
2019-02-12T11:30:18.950Z,21.2
2019-02-12T11:31:28.275Z,18.4
2019-02-12T11:32:37.593Z,17.6
2019-02-12T11:33:46.924Z,15.3
2019-02-12T11:34:56.231Z,14.1
2019-02-12T11:36:05.550Z,13.8
2019-02-12T11:37:14.971Z,13.5
2019-02-12T11:38:24.218Z,12
2019-02-12T11:39:33.563Z,13.7
2019-02-12T11:40:42.892Z,12.7
2019-02-12T11:41:52.238Z,12.4
2019-02-12T11:43:01.573Z,12
2019-02-12T11:44:10.975Z,12.5
2019-02-12T11:45:20.286Z,12.5
2019-02-12T11:46:29.635Z,11.5
2019-02-12T11:47:39.012Z,11.2
2019-02-12T11:48:48.364Z,11
2019-02-12T11:49:57.747Z,12.2
2019-02-12T11:51:07.113Z,10.1
2019-02-12T11:52:16.492Z,9.6
2019-02-12T11:53:25.885Z,9.6
2019-02-12T11:54:35.260Z,10.4
2019-02-12T11:55:44.625Z,10.2
2019-02-12T11:56:54.006Z,11.8
2019-02-12T11:58:03.440Z,11.4
2019-02-12T11:59:12.777Z,12.1
2019-02-12T12:00:22.171Z,10.7
2019-02-12T12:01:31.522Z,11.5
2019-02-12T12:02:42.324Z,11.4
2019-02-12T12:03:50.302Z,11.2
2019-02-12T12:04:59.677Z,10.3
2019-02-12T12:06:09.063Z,10.6
2019-02-12T12:07:18.476Z,9.8
2019-02-12T12:08:27.862Z,9.6
2019-02-12T12:09:37.260Z,9.1
2019-02-12T12:10:46.718Z,9.3
2019-02-12T12:11:56.078Z,8.8
2019-02-12T12:13:05.508Z,8.5
2019-02-12T12:14:14.901Z,8.8
2019-02-12T12:15:24.318Z,7.3
2019-02-12T12:17:43.136Z,6
2019-02-12T12:18:52.563Z,5.9
2019-02-12T12:20:01.995Z,7.6
2019-02-12T12:21:11.400Z,5.4
2019-02-12T12:22:20.807Z,5.9
2019-02-12T12:23:30.257Z,6.9
2019-02-12T12:24:39.677Z,9.4
2019-02-12T12:25:49.105Z,7.9
2019-02-12T12:26:58.525Z,7.8
2019-02-12T12:28:07.980Z,8.1
2019-02-12T12:29:17.412Z,9.1
2019-02-12T12:30:26.837Z,8.8
2019-02-12T12:31:36.546Z,10.6
2019-02-12T12:32:45.666Z,11.2
2019-02-12T12:33:55.091Z,11.3
2019-02-12T12:35:04.574Z,11.9
2019-02-12T12:36:13.993Z,12.2
2019-02-12T12:37:23.394Z,12.3
2019-02-12T12:38:32.833Z,12.3
2019-02-12T12:39:42.209Z,13.6
2019-02-12T12:40:51.629Z,14.1
2019-02-12T12:42:01.053Z,15.2
2019-02-12T12:43:10.447Z,17.6
2019-02-12T12:44:19.884Z,14.4
2019-02-12T12:45:29.291Z,12.8
2019-02-12T12:46:38.687Z,12.6
2019-02-12T12:47:48.093Z,12.4
2019-02-12T12:48:59.348Z,11
2019-02-12T12:50:06.930Z,11.2
2019-02-12T12:51:16.405Z,11.9
2019-02-12T12:52:25.673Z,11.6
2019-02-12T12:53:35.097Z,10.9
2019-02-12T12:54:44.479Z,9.4
2019-02-12T12:55:53.888Z,9.1
2019-02-12T12:57:03.447Z,9.6
2019-02-12T12:58:12.714Z,9.9
2019-02-12T12:59:22.134Z,9.9
2019-02-12T13:00:31.531Z,9.9
2019-02-12T13:01:40.960Z,11.7
2019-02-12T13:02:50.421Z,10.9
2019-02-12T13:03:59.780Z,11.4
2019-02-12T13:05:11.243Z,11.3
2019-02-12T13:06:18.629Z,10.8
2019-02-12T13:07:28.005Z,11.2
2019-02-12T13:08:39.319Z,11.3
2019-02-12T13:09:46.835Z,10.7
2019-02-12T13:10:56.394Z,10.9
2019-02-12T13:12:05.658Z,11.3
2019-02-12T13:13:17.065Z,12
2019-02-12T13:14:24.475Z,11.8
2019-02-12T13:15:33.891Z,13.8
2019-02-12T13:16:43.306Z,13.6
2019-02-12T13:17:52.658Z,13.5
2019-02-12T13:19:02.039Z,12.5
2019-02-12T13:20:11.436Z,12.2
2019-02-12T13:21:20.842Z,13.6
2019-02-12T13:22:30.265Z,13.1
2019-02-12T13:23:39.638Z,13.3
2019-02-12T13:24:49.089Z,13.7
2019-02-12T13:25:58.418Z,15.1
2019-02-12T13:27:07.804Z,14.5
2019-02-12T13:28:17.121Z,13.8
2019-02-12T13:29:26.509Z,13.5
2019-02-12T13:30:35.916Z,12.6
2019-02-12T13:31:45.243Z,12
2019-02-12T13:32:54.607Z,12.6
2019-02-12T13:34:03.970Z,11.6
2019-02-12T13:35:13.429Z,9.4
2019-02-12T13:36:22.711Z,10.1
2019-02-12T13:37:32.080Z,9.7
2019-02-12T13:38:41.491Z,9.6
2019-02-12T13:39:50.845Z,10.3
2019-02-12T13:41:00.196Z,10.3
2019-02-12T13:42:09.607Z,9.6
2019-02-12T13:43:18.936Z,9.7
2019-02-12T13:44:28.285Z,10.7
2019-02-12T13:45:37.653Z,9.7
2019-02-12T13:46:47.063Z,11.8
2019-02-12T13:47:56.395Z,11.8
2019-02-12T13:49:05.776Z,12
2019-02-12T13:50:15.153Z,12.4
2019-02-12T13:51:24.503Z,11.1
2019-02-12T13:52:33.883Z,8.4
2019-02-12T13:53:43.271Z,8.8
2019-02-12T13:54:52.654Z,8.8
2019-02-12T13:56:02.002Z,8.2
2019-02-12T13:57:11.379Z,9.2
2019-02-12T13:58:20.755Z,8.6
2019-02-12T13:59:30.148Z,8.9
2019-02-12T14:00:39.509Z,9
2019-02-12T14:01:48.882Z,9.6
2019-02-12T14:02:58.264Z,11.1
2019-02-12T14:04:07.714Z,11
2019-02-12T14:05:17.108Z,9.3
2019-02-12T14:06:26.413Z,9.6
2019-02-12T14:07:35.772Z,9.4
2019-02-12T14:08:45.169Z,9.1
2019-02-12T14:09:54.518Z,9.3
2019-02-12T14:11:03.888Z,9.4
2019-02-12T14:12:13.276Z,10.2
2019-02-12T14:13:22.604Z,10
2019-02-12T14:14:31.978Z,9.7
2019-02-12T14:15:41.350Z,9.5
2019-02-12T14:16:50.733Z,9.7
2019-02-12T14:18:00.106Z,10.1
2019-02-12T14:19:09.489Z,10.9
2019-02-12T14:20:18.949Z,10.9
2019-02-12T14:21:28.231Z,11.6
2019-02-12T14:22:37.547Z,11.1
2019-02-12T14:23:46.909Z,10.3
2019-02-12T14:24:56.275Z,10.8
2019-02-12T14:26:05.643Z,11.2
2019-02-12T14:27:15.060Z,10.5
2019-02-12T14:28:24.363Z,10.7
2019-02-12T14:29:33.705Z,11.4
2019-02-12T14:30:43.095Z,12.8
2019-02-12T14:31:53.315Z,13.1
2019-02-12T14:33:01.784Z,13.1
2019-02-12T14:34:11.171Z,13.3
2019-02-12T14:35:20.862Z,14.1
2019-02-12T14:36:29.875Z,13.3
2019-02-12T14:37:39.233Z,13.1
2019-02-12T14:38:48.554Z,13.1
2019-02-12T14:39:57.886Z,13.2
2019-02-12T14:41:07.277Z,13.3
2019-02-12T14:42:16.600Z,13.2
2019-02-12T14:43:25.919Z,13.2
2019-02-12T14:44:35.262Z,15.5
2019-02-12T14:45:44.639Z,16.4
2019-02-12T14:46:53.960Z,14.9
2019-02-12T14:48:03.349Z,14.2
2019-02-12T14:49:12.610Z,15
2019-02-12T14:50:21.959Z,16.6
2019-02-12T14:51:31.368Z,15.4
2019-02-12T14:52:40.646Z,16.5
2019-02-12T14:53:50.098Z,17
2019-02-12T14:54:59.391Z,15.6
2019-02-12T14:56:11.704Z,16.2
2019-02-12T14:57:17.944Z,17.9
2019-02-12T14:58:27.274Z,16.7
2019-02-12T14:59:36.595Z,17.4
2019-02-12T15:00:45.931Z,18.8
2019-02-12T15:01:55.244Z,17.3
2019-02-12T15:03:04.579Z,18
2019-02-12T15:04:13.877Z,18.2
2019-02-12T15:05:23.349Z,17.9
2019-02-12T15:06:32.564Z,18.7
2019-02-12T15:07:41.850Z,18.2
2019-02-12T15:08:51.167Z,19.2
2019-02-12T15:10:00.489Z,17.8
2019-02-12T15:11:09.803Z,18.5
2019-02-12T15:12:19.127Z,19.8
2019-02-12T15:13:28.447Z,19.1
2019-02-12T15:14:37.747Z,18.4
2019-02-12T15:15:47.082Z,17.8
2019-02-12T15:16:56.491Z,17.4
2019-02-12T15:18:05.696Z,18.8
2019-02-12T15:19:15.006Z,17.4
2019-02-12T15:20:24.344Z,17.4
2019-02-12T15:21:33.636Z,17.9
2019-02-12T15:22:42.928Z,18.4
2019-02-12T15:23:52.268Z,17.2
2019-02-12T15:25:01.845Z,18.9
2019-02-12T15:26:10.983Z,19.1
2019-02-12T15:27:20.156Z,18.2
2019-02-12T15:28:29.510Z,18.2
2019-02-12T15:29:38.793Z,18.7
2019-02-12T15:30:48.070Z,18.7